Time;durP1;ratioP1;P1;durP2;ratioP2;P2;SDS_P1;SDS_P2;PMS_P1;PMS_P2;Temp;Humidity;BMP_temperature;BMP_pressure;BME280_temperature;BME280_humidity;BME280_pressure;Samples;Min_cycle;Max_cycle;Signal;HPM_P1;HPM_P2
2022/03/07 00:01:32;;;;;;;31.35;11.38;;;7.20;99.90;;;;;;4940629;29;20038;-85
2022/03/07 00:03:58;;;;;;;29.98;9.90;;;7.30;99.90;;;;;;4940290;29;20024;-81
2022/03/07 00:06:25;;;;;;;27.00;10.35;;;7.20;99.90;;;;;;4939878;29;20046;-82
2022/03/07 00:08:51;;;;;;;27.38;9.77;;;7.20;99.90;;;;;;4955683;28;20023;-82
2022/03/07 00:11:19;;;;;;;28.60;10.13;;;7.20;99.90;;;;;;4956571;28;20051;-81
2022/03/07 00:13:47;;;;;;;33.78;11.70;;;7.20;99.90;;;;;;4923957;29;20047;-82
2022/03/07 00:16:15;;;;;;;26.65;9.93;;;7.20;99.90;;;;;;4939804;29;20109;-81
2022/03/07 00:18:42;;;;;;;23.92;9.35;;;7.10;99.90;;;;;;4955722;29;20027;-81
2022/03/07 00:21:09;;;;;;;30.10;10.80;;;7.10;99.90;;;;;;4939658;29;20031;-82
2022/03/07 00:23:36;;;;;;;21.73;8.77;;;7.10;99.90;;;;;;4939786;29;20028;-82
2022/03/07 00:26:05;;;;;;;22.70;10.15;;;7.00;99.90;;;;;;4939686;29;20053;-81
2022/03/07 00:28:31;;;;;;;29.02;10.05;;;7.00;99.90;;;;;;4923645;29;20484;-82
2022/03/07 00:30:58;;;;;;;26.27;10.00;;;7.00;99.90;;;;;;4939454;29;20094;-81
2022/03/07 00:33:25;;;;;;;26.25;9.60;;;7.00;99.90;;;;;;4939363;29;20067;-82
2022/03/07 00:35:53;;;;;;;27.15;10.15;;;7.00;99.90;;;;;;4939535;29;20027;-82
2022/03/07 00:38:20;;;;;;;27.10;9.57;;;6.90;99.90;;;;;;4939536;29;20024;-82
2022/03/07 00:40:47;;;;;;;26.27;9.70;;;6.90;99.90;;;;;;4939256;29;20396;-81
2022/03/07 00:43:13;;;;;;;25.00;9.43;;;6.90;99.90;;;;;;4939354;29;20035;-81
2022/03/07 00:45:40;;;;;;;22.42;9.13;;;6.90;99.90;;;;;;4939192;29;20027;-81
2022/03/07 00:48:07;;;;;;;23.92;9.18;;;6.90;99.90;;;;;;4923325;29;20678;-82
2022/03/07 00:50:34;;;;;;;25.25;10.05;;;6.80;99.90;;;;;;4939171;29;20070;-81
2022/03/07 00:53:01;;;;;;;24.80;9.93;;;6.90;99.90;;;;;;4938949;29;20126;-81
2022/03/07 00:55:28;;;;;;;28.48;10.00;;;6.90;99.90;;;;;;4954990;29;20374;-81
2022/03/07 00:57:55;;;;;;;29.75;10.75;;;6.90;99.90;;;;;;4956356;29;20477;-81
2022/03/07 01:00:22;;;;;;;25.27;9.65;;;6.80;99.90;;;;;;4923133;29;20122;-81
2022/03/07 01:02:49;;;;;;;19.40;8.68;;;6.80;99.90;;;;;;4956024;29;20098;-82
2022/03/07 01:05:19;;;;;;;27.52;9.35;;;6.80;99.90;;;;;;4938846;29;20519;-81
2022/03/07 01:07:46;;;;;;;30.50;11.32;;;6.80;99.90;;;;;;4938698;28;20055;-81
2022/03/07 01:10:19;;;;;;;28.45;11.20;;;6.60;99.90;;;;;;4932904;29;20059;-81
2022/03/07 01:12:46;;;;;;;27.95;11.60;;;6.50;99.90;;;;;;4904000;29;20035;-82
2022/03/07 01:15:14;;;;;;;29.00;11.82;;;6.50;99.90;;;;;;4919676;29;20036;-81
2022/03/07 01:17:41;;;;;;;31.70;11.77;;;6.50;99.90;;;;;;4919653;29;20478;-81
2022/03/07 01:20:10;;;;;;;31.90;11.52;;;6.50;99.90;;;;;;4935419;29;20042;-82
2022/03/07 01:22:38;;;;;;;35.25;12.57;;;6.50;99.90;;;;;;4919110;29;20032;-81
2022/03/07 01:25:07;;;;;;;31.85;12.82;;;6.50;99.90;;;;;;4919583;29;20477;-82
2022/03/07 01:27:34;;;;;;;36.40;13.48;;;6.30;99.90;;;;;;4919418;29;20487;-81
2022/03/07 01:30:01;;;;;;;31.38;11.68;;;6.20;99.90;;;;;;4935745;29;20028;-81
2022/03/07 01:32:28;;;;;;;27.95;10.52;;;6.00;99.90;;;;;;4919227;29;20497;-82
2022/03/07 01:34:58;;;;;;;24.67;11.55;;;6.10;99.90;;;;;;4936642;29;20385;-81
2022/03/07 01:37:24;;;;;;;35.70;11.73;;;6.10;99.90;;;;;;4919215;29;20034;-81
2022/03/07 01:39:51;;;;;;;29.20;11.82;;;6.20;99.90;;;;;;4936674;29;20366;-81
2022/03/07 01:42:18;;;;;;;32.75;12.25;;;6.20;99.90;;;;;;4903975;29;20051;-82
2022/03/07 01:44:48;;;;;;;32.88;11.65;;;6.30;99.90;;;;;;4919816;29;20042;-81
2022/03/07 01:47:15;;;;;;;28.27;11.13;;;6.40;99.90;;;;;;4936557;29;20028;-81
2022/03/07 01:49:41;;;;;;;29.88;10.40;;;6.40;99.90;;;;;;4919289;29;20087;-82
2022/03/07 01:52:09;;;;;;;29.85;11.98;;;6.50;99.90;;;;;;4919177;29;20024;-81
2022/03/07 01:54:36;;;;;;;37.92;12.02;;;6.50;99.90;;;;;;4919212;29;20075;-81
2022/03/07 01:57:03;;;;;;;31.98;9.73;;;6.60;99.90;;;;;;4919219;29;20031;-82
2022/03/07 01:59:33;;;;;;;26.27;10.75;;;6.60;99.90;;;;;;4919034;29;20032;-81
2022/03/07 02:02:01;;;;;;;27.88;10.60;;;6.60;99.90;;;;;;4919131;29;20078;-81
2022/03/07 02:04:28;;;;;;;30.42;11.38;;;6.60;99.90;;;;;;4919114;29;20032;-81
2022/03/07 02:06:56;;;;;;;26.02;12.18;;;6.60;99.90;;;;;;4934917;29;20526;-81
2022/03/07 02:09:23;;;;;;;34.08;12.82;;;6.50;99.90;;;;;;4919107;29;20035;-81
2022/03/07 02:11:51;;;;;;;30.15;10.75;;;6.50;99.90;;;;;;4934791;29;20055;-81
2022/03/07 02:14:27;;;;;;;21.75;10.52;;;6.40;99.90;;;;;;4934933;29;20043;-81
2022/03/07 02:16:57;;;;;;;32.33;10.68;;;6.40;99.90;;;;;;4934916;29;20024;-81
2022/03/07 02:19:24;;;;;;;33.15;10.43;;;6.30;99.90;;;;;;4918879;29;20556;-81
2022/03/07 02:22:01;;;;;;;23.40;10.77;;;6.30;99.90;;;;;;4919062;29;20136;-81
2022/03/07 02:24:48;;;;;;;25.10;10.07;;;6.30;99.90;;;;;;4935541;29;20515;-81
2022/03/07 02:27:18;;;;;;;30.77;11.20;;;6.20;99.90;;;;;;4936379;29;20066;-81
2022/03/07 02:29:47;;;;;;;24.30;10.15;;;6.20;99.90;;;;;;4918876;29;20028;-81
2022/03/07 02:32:21;;;;;;;31.43;11.70;;;6.10;99.90;;;;;;4904365;29;20024;-81
2022/03/07 02:34:49;;;;;;;28.33;11.20;;;6.10;99.90;;;;;;4907039;29;20040;-81
2022/03/07 02:37:18;;;;;;;36.15;12.75;;;6.00;99.90;;;;;;4922868;29;20493;-81
2022/03/07 02:39:53;;;;;;;26.48;9.98;;;5.90;99.90;;;;;;4907648;29;20031;-81
2022/03/07 02:42:20;;;;;;;29.00;10.15;;;5.90;99.90;;;;;;4922255;29;20028;-81
2022/03/07 02:44:47;;;;;;;25.02;10.82;;;5.80;99.90;;;;;;4922472;29;20032;-81
2022/03/07 02:47:14;;;;;;;25.60;10.02;;;5.80;99.90;;;;;;4922219;29;20032;-81
2022/03/07 02:49:41;;;;;;;28.77;10.50;;;5.70;99.90;;;;;;4938136;29;20032;-81
2022/03/07 02:52:10;;;;;;;25.17;10.25;;;5.60;99.90;;;;;;4922145;29;20115;-81
2022/03/07 02:54:38;;;;;;;29.27;11.13;;;5.50;99.90;;;;;;4922035;29;20035;-81
2022/03/07 02:57:07;;;;;;;26.67;10.13;;;5.50;99.90;;;;;;4922072;29;20375;-81
2022/03/07 02:59:34;;;;;;;27.38;10.43;;;5.50;99.90;;;;;;4922020;29;20060;-81
2022/03/07 03:02:01;;;;;;;29.80;11.55;;;5.40;99.90;;;;;;4922259;29;20027;-81
2022/03/07 03:04:28;;;;;;;30.25;9.07;;;5.30;99.90;;;;;;4938919;29;20028;-81
2022/03/07 03:06:54;;;;;;;28.00;11.70;;;5.40;99.90;;;;;;4939019;29;20031;-81
2022/03/07 03:09:21;;;;;;;30.27;10.68;;;5.30;99.90;;;;;;4939028;29;20027;-81
2022/03/07 03:11:48;;;;;;;28.27;10.20;;;5.40;99.90;;;;;;4956971;29;20061;-82
2022/03/07 03:14:16;;;;;;;28.73;10.48;;;5.50;99.90;;;;;;4940631;29;20125;-82
2022/03/07 03:16:43;;;;;;;28.02;10.13;;;5.50;99.90;;;;;;4940774;29;20023;-81
2022/03/07 03:19:09;;;;;;;25.40;9.50;;;5.40;99.90;;;;;;4924971;29;20031;-81
2022/03/07 03:21:36;;;;;;;24.98;10.43;;;5.30;99.90;;;;;;4940661;29;20027;-82
2022/03/07 03:24:03;;;;;;;22.33;9.60;;;5.30;99.90;;;;;;4940535;29;20126;-81
2022/03/07 03:26:29;;;;;;;20.38;8.82;;;5.30;99.90;;;;;;4940492;29;20505;-81
2022/03/07 03:28:56;;;;;;;22.33;9.23;;;5.30;99.90;;;;;;4958080;29;20027;-81
2022/03/07 03:31:23;;;;;;;29.38;9.68;;;5.30;99.90;;;;;;4940895;29;20548;-81
2022/03/07 03:33:50;;;;;;;28.35;10.15;;;5.30;99.90;;;;;;4958015;29;20035;-81
2022/03/07 03:36:16;;;;;;;32.40;10.52;;;5.30;99.90;;;;;;4940246;29;20032;-81
2022/03/07 03:38:43;;;;;;;23.17;8.93;;;5.40;99.90;;;;;;4940473;29;20035;-81
2022/03/07 03:41:10;;;;;;;25.23;9.27;;;5.40;99.90;;;;;;4940466;29;20032;-81
2022/03/07 03:43:36;;;;;;;33.30;10.50;;;5.50;99.90;;;;;;4940231;28;20026;-81
2022/03/07 03:46:03;;;;;;;27.40;10.05;;;5.50;99.90;;;;;;4939712;29;20157;-81
2022/03/07 03:48:29;;;;;;;25.67;9.55;;;5.50;99.90;;;;;;4940271;29;20094;-81
2022/03/07 03:50:56;;;;;;;28.70;9.45;;;5.60;99.90;;;;;;4940113;29;20036;-81
2022/03/07 03:53:23;;;;;;;26.92;10.50;;;5.60;99.90;;;;;;4956092;28;20129;-81
2022/03/07 03:55:49;;;;;;;20.77;9.07;;;5.60;99.90;;;;;;4956416;29;20027;-81
2022/03/07 03:58:15;;;;;;;28.65;9.98;;;5.60;99.90;;;;;;4940440;29;20031;-81
2022/03/07 04:00:45;;;;;;;21.92;9.25;;;5.60;99.90;;;;;;4957537;29;20067;-81
2022/03/07 04:03:11;;;;;;;27.55;10.02;;;5.60;99.90;;;;;;4955969;29;20042;-81
2022/03/07 04:05:37;;;;;;;22.83;9.02;;;5.60;99.90;;;;;;4939828;29;20074;-81
2022/03/07 04:08:05;;;;;;;24.45;8.88;;;5.70;99.90;;;;;;4939834;29;20115;-81
2022/03/07 04:10:32;;;;;;;22.10;9.25;;;5.70;99.90;;;;;;4931705;29;20094;-81
2022/03/07 04:12:58;;;;;;;20.58;8.85;;;5.80;99.90;;;;;;4920710;29;20059;-81
2022/03/07 04:15:26;;;;;;;26.38;10.02;;;5.80;99.90;;;;;;4920780;29;20392;-81
2022/03/07 04:17:54;;;;;;;27.25;9.48;;;5.70;99.90;;;;;;4920624;29;20027;-81
2022/03/07 04:20:20;;;;;;;32.45;10.88;;;5.70;99.90;;;;;;4937519;29;20104;-81
2022/03/07 04:22:50;;;;;;;23.55;10.00;;;5.70;99.90;;;;;;4936282;29;20042;-81
2022/03/07 04:25:16;;;;;;;27.00;9.90;;;5.70;99.90;;;;;;4920601;29;20114;-81
2022/03/07 04:27:43;;;;;;;22.58;8.95;;;5.70;99.90;;;;;;4920353;29;20449;-81
2022/03/07 04:30:10;;;;;;;29.17;10.20;;;5.80;99.90;;;;;;4920441;29;20055;-81
2022/03/07 04:32:38;;;;;;;19.58;9.48;;;5.70;99.90;;;;;;4936171;29;20043;-81
2022/03/07 04:35:06;;;;;;;23.55;9.32;;;5.80;99.90;;;;;;4920456;29;20394;-81
2022/03/07 04:37:34;;;;;;;23.30;9.85;;;5.80;99.90;;;;;;4936063;29;20429;-81
2022/03/07 04:40:03;;;;;;;29.95;10.55;;;5.80;99.90;;;;;;4920126;29;20544;-81
2022/03/07 04:42:30;;;;;;;28.80;11.88;;;5.70;99.90;;;;;;4920240;29;20039;-81
2022/03/07 04:44:56;;;;;;;25.40;11.05;;;5.70;99.90;;;;;;4920197;29;20036;-81
2022/03/07 04:47:23;;;;;;;30.95;10.38;;;5.60;99.90;;;;;;4920062;29;20065;-81
2022/03/07 04:49:50;;;;;;;26.90;10.45;;;5.50;99.90;;;;;;4920048;29;20140;-81
2022/03/07 04:52:17;;;;;;;23.65;10.27;;;5.50;99.90;;;;;;4919986;29;20112;-81
2022/03/07 04:54:43;;;;;;;20.27;9.45;;;5.60;99.90;;;;;;4937103;29;20027;-81
2022/03/07 04:57:10;;;;;;;28.20;10.38;;;5.60;99.90;;;;;;4919118;29;20030;-81
2022/03/07 04:59:36;;;;;;;19.50;9.05;;;5.50;99.90;;;;;;4936007;29;20039;-81
2022/03/07 05:02:03;;;;;;;23.45;8.85;;;5.60;99.90;;;;;;4935630;29;20024;-81
2022/03/07 05:04:29;;;;;;;17.33;8.48;;;5.60;99.90;;;;;;4919881;29;20441;-81
2022/03/07 05:06:57;;;;;;;25.75;8.93;;;5.60;99.90;;;;;;4919885;29;20477;-81
2022/03/07 05:09:23;;;;;;;23.92;9.70;;;5.60;99.90;;;;;;4919676;29;20051;-81
2022/03/07 05:11:50;;;;;;;21.70;8.65;;;5.60;99.90;;;;;;4919529;29;20497;-81
2022/03/07 05:14:18;;;;;;;28.90;11.20;;;5.70;99.90;;;;;;4919466;29;20394;-81
2022/03/07 05:16:44;;;;;;;21.88;8.90;;;5.70;99.90;;;;;;4935509;29;20094;-81
2022/03/07 05:19:11;;;;;;;21.83;9.50;;;5.80;99.90;;;;;;4919610;29;20118;-81
2022/03/07 05:21:38;;;;;;;22.15;9.50;;;5.80;99.90;;;;;;4935509;29;20035;-81
2022/03/07 05:24:05;;;;;;;26.85;9.05;;;5.70;99.90;;;;;;4919388;29;20039;-81
2022/03/07 05:26:32;;;;;;;24.88;10.38;;;5.70;99.90;;;;;;4919572;29;20545;-81
2022/03/07 05:28:58;;;;;;;27.13;9.32;;;5.60;99.90;;;;;;4919418;29;20039;-81
2022/03/07 05:31:25;;;;;;;31.15;10.90;;;5.70;99.90;;;;;;4919337;29;20051;-81
2022/03/07 05:33:51;;;;;;;32.00;10.80;;;5.80;99.90;;;;;;4903485;29;20050;-81
2022/03/07 05:36:18;;;;;;;23.23;8.77;;;5.80;99.90;;;;;;4935484;29;20027;-81
2022/03/07 05:38:44;;;;;;;20.17;9.30;;;6.00;99.90;;;;;;4935110;29;20079;-81
2022/03/07 05:41:11;;;;;;;23.95;9.75;;;6.10;99.90;;;;;;4919379;29;20545;-81
2022/03/07 05:43:37;;;;;;;21.15;9.50;;;6.10;99.90;;;;;;4935031;29;20050;-81
2022/03/07 05:46:06;;;;;;;25.02;9.90;;;6.10;99.90;;;;;;4919229;29;20020;-81
2022/03/07 05:48:33;;;;;;;28.70;10.35;;;6.10;99.90;;;;;;4919241;29;20035;-81
2022/03/07 05:50:59;;;;;;;24.05;9.13;;;6.00;99.90;;;;;;4919280;29;20114;-81
2022/03/07 05:53:26;;;;;;;28.60;10.73;;;6.00;99.90;;;;;;4919101;29;20035;-81
2022/03/07 05:55:52;;;;;;;22.63;9.50;;;6.00;99.90;;;;;;4936183;29;20028;-81
2022/03/07 05:58:20;;;;;;;24.65;9.35;;;6.10;99.90;;;;;;4936411;29;20054;-81
2022/03/07 06:00:46;;;;;;;25.70;8.98;;;6.20;99.90;;;;;;4919103;29;20486;-81
2022/03/07 06:03:14;;;;;;;19.65;9.05;;;6.20;99.90;;;;;;4919090;29;20046;-81
2022/03/07 06:05:41;;;;;;;22.52;9.27;;;6.20;99.90;;;;;;4936332;29;20020;-81
2022/03/07 06:08:07;;;;;;;24.55;9.60;;;6.20;99.90;;;;;;4936537;29;20086;-81
2022/03/07 06:10:34;;;;;;;25.40;10.15;;;6.30;99.90;;;;;;4922900;29;20125;-82
2022/03/07 06:13:00;;;;;;;22.98;9.40;;;6.50;99.90;;;;;;4922863;29;20557;-82
2022/03/07 06:15:27;;;;;;;24.45;9.13;;;6.50;99.90;;;;;;4938818;29;20032;-82
2022/03/07 06:17:58;;;;;;;24.00;9.10;;;6.50;99.90;;;;;;4940065;29;20031;-82
2022/03/07 06:20:25;;;;;;;22.48;8.75;;;6.50;99.90;;;;;;4938959;29;20031;-82
2022/03/07 06:22:52;;;;;;;33.22;10.88;;;6.60;99.90;;;;;;4922776;29;20024;-85
2022/03/07 06:25:20;;;;;;;28.48;9.95;;;6.60;99.90;;;;;;4938582;29;20532;-82
2022/03/07 06:27:47;;;;;;;24.77;10.52;;;6.60;99.90;;;;;;4938441;29;20031;-82
2022/03/07 06:30:14;;;;;;;27.65;11.07;;;6.60;99.90;;;;;;4939556;29;20375;-91
2022/03/07 06:32:40;;;;;;;31.95;9.90;;;6.70;99.90;;;;;;4906713;29;20375;-83
2022/03/07 06:35:07;;;;;;;28.05;10.57;;;6.80;99.90;;;;;;4922487;29;20055;-83
2022/03/07 06:37:33;;;;;;;24.50;10.50;;;6.80;99.90;;;;;;4939884;29;20489;-82
2022/03/07 06:40:00;;;;;;;39.00;12.52;;;6.90;99.90;;;;;;4938429;29;20028;-82
2022/03/07 06:42:26;;;;;;;30.10;11.55;;;6.90;99.90;;;;;;4922584;29;20028;-81
2022/03/07 06:44:53;;;;;;;29.33;11.82;;;7.00;99.90;;;;;;4906867;29;20031;-82
2022/03/07 06:47:22;;;;;;;27.50;10.70;;;7.00;99.90;;;;;;4922593;29;20034;-81
2022/03/07 06:49:55;;;;;;;31.08;11.30;;;7.10;99.90;;;;;;4922364;29;20027;-82
2022/03/07 06:52:23;;;;;;;32.30;12.38;;;7.20;99.90;;;;;;4924875;29;20031;-83
2022/03/07 06:54:50;;;;;;;29.00;10.40;;;7.30;99.90;;;;;;4940551;29;20489;-84
2022/03/07 06:57:18;;;;;;;29.52;11.02;;;7.30;99.90;;;;;;4940119;29;20097;-84
2022/03/07 06:59:44;;;;;;;29.23;12.05;;;7.20;99.90;;;;;;4935877;29;20032;-82
2022/03/07 07:02:10;;;;;;;31.38;11.95;;;7.30;99.90;;;;;;4941284;29;20047;-81
2022/03/07 07:05:06;;;;;;;27.33;11.05;;;7.20;99.90;;;;;;4925783;28;20038;-84
2022/03/07 07:07:33;;;;;;;21.13;10.18;;;7.30;99.90;;;;;;4931552;29;20060;-82
2022/03/07 07:09:59;;;;;;;26.75;10.02;;;7.40;99.90;;;;;;4935689;28;20130;-80
2022/03/07 07:12:25;;;;;;;24.80;10.48;;;7.40;99.90;;;;;;4949806;29;20430;-83
2022/03/07 07:14:52;;;;;;;30.60;10.20;;;7.40;99.90;;;;;;4940813;29;20031;-84
2022/03/07 07:17:18;;;;;;;24.35;9.77;;;7.30;99.90;;;;;;4941037;29;20121;-81
2022/03/07 07:19:44;;;;;;;28.48;9.90;;;7.30;99.90;;;;;;4955789;28;20027;-83
2022/03/07 07:22:10;;;;;;;24.60;8.55;;;7.20;99.90;;;;;;4940897;29;20060;-83
2022/03/07 07:24:37;;;;;;;20.55;7.55;;;7.20;99.90;;;;;;4941032;29;20098;-84
2022/03/07 07:27:04;;;;;;;18.50;8.55;;;7.10;99.90;;;;;;4941064;29;20035;-85
2022/03/07 07:29:30;;;;;;;24.15;8.57;;;7.10;99.90;;;;;;4940778;29;20500;-82
2022/03/07 07:31:56;;;;;;;20.35;8.43;;;7.20;99.90;;;;;;4940686;29;20114;-81
2022/03/07 07:34:22;;;;;;;20.70;7.93;;;7.20;99.90;;;;;;4940600;29;20091;-81
2022/03/07 07:36:49;;;;;;;22.58;10.30;;;7.20;99.90;;;;;;4957628;28;20023;-83
2022/03/07 07:39:17;;;;;;;23.42;8.98;;;7.30;99.90;;;;;;4940736;29;20055;-83
2022/03/07 07:41:44;;;;;;;24.45;9.25;;;7.40;99.90;;;;;;4940452;29;20059;-83
2022/03/07 07:44:10;;;;;;;28.50;9.30;;;7.50;99.90;;;;;;4940706;29;20556;-85
2022/03/07 07:46:36;;;;;;;22.55;8.00;;;7.50;99.90;;;;;;4940943;29;20027;-85
2022/03/07 07:49:03;;;;;;;19.08;8.57;;;7.60;99.90;;;;;;4940782;29;20118;-84
2022/03/07 07:51:29;;;;;;;26.83;9.00;;;7.70;99.90;;;;;;4941845;28;20027;-83
2022/03/07 07:53:55;;;;;;;18.55;7.88;;;7.70;99.90;;;;;;4950631;28;20555;-84
2022/03/07 07:56:22;;;;;;;16.13;6.78;;;7.70;99.90;;;;;;4962536;28;20125;-82
2022/03/07 07:58:49;;;;;;;18.08;6.75;;;7.80;99.90;;;;;;4978911;28;20034;-84
2022/03/07 08:01:15;;;;;;;14.88;6.32;;;7.70;99.90;;;;;;4978993;28;20041;-83
2022/03/07 08:03:41;;;;;;;13.07;6.43;;;7.80;99.90;;;;;;4978773;28;20032;-83
2022/03/07 08:06:07;;;;;;;13.52;6.30;;;7.80;99.90;;;;;;4978812;28;20176;-83
2022/03/07 08:08:34;;;;;;;17.13;7.03;;;7.80;99.90;;;;;;4962564;28;20034;-82
2022/03/07 08:11:00;;;;;;;18.13;7.45;;;7.80;99.90;;;;;;4978855;28;20047;-85
2022/03/07 08:13:26;;;;;;;16.02;7.68;;;7.80;99.90;;;;;;4978595;28;20116;-85
2022/03/07 08:15:53;;;;;;;16.88;6.78;;;7.90;99.90;;;;;;4962517;28;20027;-84
2022/03/07 08:18:19;;;;;;;17.88;7.20;;;7.90;99.90;;;;;;4978680;28;20026;-84
2022/03/07 08:20:45;;;;;;;14.57;6.55;;;7.80;99.90;;;;;;4962648;28;20038;-86
2022/03/07 08:23:12;;;;;;;19.65;6.68;;;7.80;99.90;;;;;;4929182;29;20523;-86
2022/03/07 08:25:38;;;;;;;17.60;6.60;;;7.80;99.90;;;;;;4924333;29;20059;-86
2022/03/07 08:28:04;;;;;;;16.38;7.38;;;7.80;99.90;;;;;;4970420;28;20031;-82
2022/03/07 08:30:31;;;;;;;12.77;5.32;;;8.00;99.90;;;;;;4942660;28;20051;-83
2022/03/07 08:32:57;;;;;;;14.48;5.65;;;8.10;99.90;;;;;;4942706;28;20151;-82
2022/03/07 08:35:24;;;;;;;12.52;6.18;;;8.20;99.90;;;;;;4942392;28;20019;-83
2022/03/07 08:37:51;;;;;;;15.85;5.82;;;8.20;99.90;;;;;;4942626;28;20057;-84
2022/03/07 08:40:20;;;;;;;10.73;5.25;;;8.20;99.90;;;;;;4942578;28;20436;-83
2022/03/07 08:42:46;;;;;;;12.77;5.63;;;8.10;99.90;;;;;;4942880;28;20038;-82
2022/03/07 08:45:13;;;;;;;11.82;5.10;;;7.90;99.90;;;;;;4942464;28;20050;-83
2022/03/07 08:47:40;;;;;;;14.45;5.65;;;7.90;99.90;;;;;;4942755;28;20062;-83
2022/03/07 08:50:10;;;;;;;15.88;6.80;;;8.00;99.90;;;;;;4949813;28;20057;-84
2022/03/07 08:52:37;;;;;;;15.68;7.10;;;8.00;99.90;;;;;;4977442;28;20049;-83
2022/03/07 08:55:05;;;;;;;22.60;8.82;;;7.90;99.90;;;;;;4961763;28;20125;-83
2022/03/07 08:57:31;;;;;;;19.17;8.27;;;7.90;99.90;;;;;;4977476;28;20061;-84
2022/03/07 08:59:57;;;;;;;20.85;8.27;;;8.00;99.90;;;;;;4977210;28;20066;-84
2022/03/07 09:02:24;;;;;;;34.95;14.70;;;8.20;99.90;;;;;;4974722;28;20504;-83
2022/03/07 09:04:50;;;;;;;37.90;14.45;;;8.30;99.90;;;;;;4977303;28;20046;-83
2022/03/07 09:07:17;;;;;;;34.00;11.13;;;8.40;99.90;;;;;;4977457;28;20113;-85
2022/03/07 09:09:44;;;;;;;22.60;9.30;;;8.50;99.90;;;;;;4993515;28;20488;-84
2022/03/07 09:12:10;;;;;;;16.30;7.72;;;8.50;99.90;;;;;;4977453;28;20081;-84
2022/03/07 09:14:36;;;;;;;18.38;7.20;;;8.70;99.90;;;;;;4977625;28;20114;-85
2022/03/07 09:17:03;;;;;;;22.73;8.88;;;8.70;99.90;;;;;;4943078;29;20112;-84
2022/03/07 09:19:30;;;;;;;15.32;6.45;;;8.70;99.90;;;;;;4954690;28;20028;-83
2022/03/07 09:21:56;;;;;;;14.85;6.20;;;8.60;99.90;;;;;;4939042;29;20027;-84
2022/03/07 09:24:23;;;;;;;28.90;9.88;;;8.50;99.90;;;;;;4955041;28;20176;-84
2022/03/07 09:26:49;;;;;;;16.98;7.65;;;8.70;99.90;;;;;;4939010;29;20377;-85
2022/03/07 09:29:15;;;;;;;14.55;7.00;;;8.80;99.90;;;;;;4938930;29;20035;-85
2022/03/07 09:31:42;;;;;;;18.13;6.70;;;8.90;99.90;;;;;;4954763;29;20060;-86
2022/03/07 09:34:10;;;;;;;17.33;6.82;;;9.00;99.90;;;;;;4938860;29;20058;-86
2022/03/07 09:36:36;;;;;;;17.08;7.40;;;9.00;99.90;;;;;;4938941;29;20114;-84
2022/03/07 09:39:03;;;;;;;15.35;6.88;;;9.00;99.90;;;;;;4938971;29;20473;-84
2022/03/07 09:41:30;;;;;;;14.80;5.13;;;9.00;99.90;;;;;;4954853;28;20031;-86
2022/03/07 09:43:56;;;;;;;10.40;5.15;;;8.90;99.90;;;;;;4943082;28;20444;-86
2022/03/07 09:46:22;;;;;;;19.52;9.00;;;8.80;99.90;;;;;;4938660;29;20023;-86
2022/03/07 09:48:48;;;;;;;16.05;7.25;;;8.70;99.90;;;;;;4938984;29;20071;-81
2022/03/07 09:51:15;;;;;;;14.70;7.50;;;8.60;99.90;;;;;;4939380;28;20515;-86
2022/03/07 09:53:41;;;;;;;24.10;8.25;;;8.50;99.90;;;;;;4942109;28;20550;-84
2022/03/07 09:56:07;;;;;;;26.17;9.13;;;8.40;99.90;;;;;;4957556;28;20086;-85
2022/03/07 09:58:34;;;;;;;19.95;8.18;;;8.50;99.90;;;;;;4941777;28;20124;-85
2022/03/07 10:01:10;;;;;;;18.70;7.03;;;8.50;99.90;;;;;;4941752;28;20033;-86
2022/03/07 10:03:37;;;;;;;16.70;6.82;;;8.60;99.90;;;;;;4974077;28;20488;-85
2022/03/07 10:06:14;;;;;;;13.48;5.63;;;8.60;99.90;;;;;;4974086;28;20019;-84
2022/03/07 10:08:56;;;;;;;13.90;5.38;;;8.60;99.90;;;;;;4957914;28;20404;-86
2022/03/07 10:11:24;;;;;;;12.23;6.45;;;8.70;99.90;;;;;;4944835;28;20047;-83
2022/03/07 10:14:02;;;;;;;16.45;5.28;;;8.70;99.90;;;;;;4938355;29;20055;-85
2022/03/07 10:16:43;;;;;;;14.10;5.70;;;8.80;99.90;;;;;;4938287;29;20174;-83
2022/03/07 10:19:14;;;;;;;11.80;5.97;;;8.80;99.90;;;;;;4938385;29;20031;-83
2022/03/07 10:21:49;;;;;;;15.52;6.55;;;8.70;99.90;;;;;;4938434;29;20030;-85
2022/03/07 10:24:16;;;;;;;16.95;6.47;;;8.60;99.90;;;;;;4938199;29;20511;-85
2022/03/07 10:26:43;;;;;;;13.38;5.78;;;8.50;99.90;;;;;;4938311;29;20027;-84
2022/03/07 10:29:10;;;;;;;19.45;6.47;;;8.40;99.90;;;;;;4938463;29;20445;-86
2022/03/07 10:31:44;;;;;;;12.05;5.80;;;8.50;99.90;;;;;;4938416;29;20047;-85
2022/03/07 10:34:11;;;;;;;15.55;6.22;;;8.80;99.90;;;;;;4938512;29;20122;-86
2022/03/07 10:36:41;;;;;;;18.23;6.95;;;8.80;99.90;;;;;;4939180;28;20043;-85
2022/03/07 10:39:09;;;;;;;15.73;6.18;;;8.90;99.90;;;;;;4934353;28;20604;-85
2022/03/07 10:41:44;;;;;;;11.02;4.78;;;9.00;99.90;;;;;;4938327;29;20055;-84
2022/03/07 10:44:24;;;;;;;16.17;5.38;;;9.20;99.90;;;;;;4954440;29;20521;-84
2022/03/07 10:46:50;;;;;;;12.75;5.90;;;9.30;99.90;;;;;;4954316;29;20039;-86
2022/03/07 10:49:19;;;;;;;10.35;4.72;;;9.20;99.90;;;;;;4938176;29;20031;-86
2022/03/07 10:51:53;;;;;;;7.93;3.97;;;9.30;99.90;;;;;;4938440;29;20028;-88
2022/03/07 10:54:22;;;;;;;13.05;5.22;;;9.30;99.90;;;;;;4956179;28;20039;-83
2022/03/07 10:56:53;;;;;;;12.30;4.75;;;9.30;99.90;;;;;;4941709;29;20028;-86
2022/03/07 10:59:30;;;;;;;10.50;4.65;;;9.40;99.90;;;;;;4957580;29;20039;-84
2022/03/07 11:02:06;;;;;;;12.40;5.65;;;9.50;99.90;;;;;;4957642;29;20031;-89
2022/03/07 11:04:37;;;;;;;14.70;6.00;;;9.30;99.90;;;;;;4941810;29;20034;-89
2022/03/07 11:07:04;;;;;;;8.57;3.83;;;9.10;99.90;;;;;;4941280;29;20033;-87
2022/03/07 11:09:31;;;;;;;6.57;3.05;;;9.30;99.90;;;;;;4937782;29;20024;-83
2022/03/07 11:11:58;;;;;;;12.70;4.25;;;9.40;99.90;;;;;;4922093;29;20106;-90
2022/03/07 11:14:27;;;;;;;6.90;3.13;;;9.60;99.90;;;;;;4938360;29;20043;-86
2022/03/07 11:16:56;;;;;;;11.50;4.38;;;9.50;99.90;;;;;;4938045;29;20028;-88
2022/03/07 11:19:27;;;;;;;7.15;3.75;;;9.60;99.90;;;;;;4938009;29;20028;-85
2022/03/07 11:21:55;;;;;;;13.10;4.57;;;9.80;99.90;;;;;;4938370;29;20489;-85
2022/03/07 11:24:26;;;;;;;9.02;3.60;;;9.90;99.90;;;;;;4938312;29;20036;-86
2022/03/07 11:26:55;;;;;;;9.00;4.15;;;10.00;99.90;;;;;;4937970;29;20062;-87
2022/03/07 11:29:41;;;;;;;10.07;4.60;;;10.00;99.90;;;;;;4938132;29;20024;-85
2022/03/07 11:32:14;;;;;;;9.50;4.70;;;10.00;99.90;;;;;;4938025;29;20035;-86
2022/03/07 11:34:52;;;;;;;10.45;4.32;;;9.90;99.90;;;;;;4937827;29;20039;-85
2022/03/07 11:37:20;;;;;;;8.32;4.25;;;9.60;99.90;;;;;;4946069;28;20030;-85
2022/03/07 11:39:47;;;;;;;9.82;4.25;;;9.60;99.90;;;;;;4944064;28;20404;-87
2022/03/07 11:42:16;;;;;;;12.98;4.45;;;9.30;99.90;;;;;;4944467;28;20034;-82
2022/03/07 11:44:44;;;;;;;9.73;3.80;;;9.30;99.90;;;;;;4930719;28;20023;-86
2022/03/07 11:47:16;;;;;;;11.93;4.15;;;9.30;99.90;;;;;;4930227;29;20031;-84
2022/03/07 11:49:42;;;;;;;8.93;4.47;;;9.20;99.90;;;;;;4940820;29;20079;-84
2022/03/07 11:52:13;;;;;;;7.10;3.35;;;9.30;99.90;;;;;;4956977;29;20469;-82
2022/03/07 11:54:57;;;;;;;7.63;3.40;;;9.20;99.90;;;;;;4940502;29;20039;-83
2022/03/07 11:57:36;;;;;;;7.43;4.00;;;9.20;99.90;;;;;;4940593;29;20027;-86
2022/03/07 12:00:26;;;;;;;10.45;3.58;;;9.20;99.90;;;;;;4940754;29;20397;-84
2022/03/07 12:02:56;;;;;;;9.43;4.40;;;9.20;99.90;;;;;;4940219;29;20114;-87
2022/03/07 12:05:25;;;;;;;10.38;4.20;;;9.30;99.90;;;;;;4956162;28;20065;-89
2022/03/07 12:07:53;;;;;;;10.18;3.65;;;9.30;99.90;;;;;;4940525;29;20054;-86
2022/03/07 12:10:23;;;;;;;9.85;4.43;;;9.30;99.90;;;;;;4956388;28;20043;-90
2022/03/07 12:12:49;;;;;;;7.15;4.50;;;9.30;99.90;;;;;;4940274;29;20090;-84
2022/03/07 12:15:15;;;;;;;12.43;4.55;;;9.30;99.90;;;;;;4940601;29;20031;-83
2022/03/07 12:17:41;;;;;;;15.57;6.28;;;9.20;99.90;;;;;;4940094;29;20023;-83
2022/03/07 12:20:08;;;;;;;9.70;3.97;;;9.20;99.90;;;;;;4939978;29;20050;-82
2022/03/07 12:22:35;;;;;;;12.63;4.07;;;9.20;99.90;;;;;;4940209;29;20057;-83
2022/03/07 12:25:07;;;;;;;7.72;4.13;;;9.30;99.90;;;;;;4956211;29;20101;-85
2022/03/07 12:27:38;;;;;;;7.68;3.90;;;9.20;99.90;;;;;;4940346;29;20088;-88
2022/03/07 12:30:09;;;;;;;9.25;3.58;;;9.20;99.90;;;;;;4956038;29;20030;-84
2022/03/07 12:32:37;;;;;;;6.90;3.40;;;9.10;99.90;;;;;;4939375;29;20031;-82
2022/03/07 12:35:03;;;;;;;6.97;3.25;;;9.10;99.90;;;;;;4939609;29;20035;-82
2022/03/07 12:37:30;;;;;;;7.20;3.60;;;9.10;99.90;;;;;;4955441;29;20063;-82
2022/03/07 12:40:03;;;;;;;8.77;4.32;;;9.30;99.90;;;;;;4939281;29;20118;-82
2022/03/07 12:42:31;;;;;;;8.77;3.37;;;9.40;99.90;;;;;;4939278;29;20027;-82
2022/03/07 12:45:00;;;;;;;6.88;3.88;;;9.40;99.90;;;;;;4955416;29;20065;-82
2022/03/07 12:47:35;;;;;;;9.18;3.90;;;9.30;99.90;;;;;;4923513;29;20031;-82